sensor_id;sensor_type;location;lat;lon;timestamp;P1;durP1;ratioP1;P2;durP2;ratioP2
75005;SDS011;63553;51.814;4.600;2024-02-21T00:00:03;1.95;;;1.20;;
75005;SDS011;63553;51.814;4.600;2024-02-21T00:02:30;2.47;;;1.23;;
75005;SDS011;63553;51.814;4.600;2024-02-21T00:04:55;3.17;;;1.33;;
75005;SDS011;63553;51.814;4.600;2024-02-21T00:07:20;3.50;;;1.30;;
75005;SDS011;63553;51.814;4.600;2024-02-21T00:09:46;2.83;;;1.47;;
75005;SDS011;63553;51.814;4.600;2024-02-21T00:12:11;1.33;;;1.23;;
75005;SDS011;63553;51.814;4.600;2024-02-21T00:14:38;2.95;;;1.33;;
75005;SDS011;63553;51.814;4.600;2024-02-21T00:17:04;3.00;;;1.63;;
75005;SDS011;63553;51.814;4.600;2024-02-21T00:19:29;1.57;;;1.13;;
75005;SDS011;63553;51.814;4.600;2024-02-21T00:21:55;1.70;;;1.27;;
75005;SDS011;63553;51.814;4.600;2024-02-21T00:24:20;2.93;;;1.33;;
75005;SDS011;63553;51.814;4.600;2024-02-21T00:26:45;1.65;;;1.17;;
75005;SDS011;63553;51.814;4.600;2024-02-21T00:29:11;1.48;;;1.38;;
75005;SDS011;63553;51.814;4.600;2024-02-21T00:31:36;2.47;;;1.50;;
75005;SDS011;63553;51.814;4.600;2024-02-21T00:34:01;2.63;;;1.23;;
75005;SDS011;63553;51.814;4.600;2024-02-21T00:36:27;1.53;;;1.20;;
75005;SDS011;63553;51.814;4.600;2024-02-21T00:38:52;1.40;;;1.20;;
75005;SDS011;63553;51.814;4.600;2024-02-21T00:41:18;1.50;;;1.10;;
75005;SDS011;63553;51.814;4.600;2024-02-21T00:43:43;3.53;;;1.27;;
75005;SDS011;63553;51.814;4.600;2024-02-21T00:46:08;2.10;;;1.20;;
75005;SDS011;63553;51.814;4.600;2024-02-21T00:48:34;1.00;;;1.00;;
75005;SDS011;63553;51.814;4.600;2024-02-21T00:51:00;1.85;;;1.13;;
75005;SDS011;63553;51.814;4.600;2024-02-21T00:53:25;2.70;;;1.25;;
75005;SDS011;63553;51.814;4.600;2024-02-21T00:55:51;2.13;;;1.02;;
75005;SDS011;63553;51.814;4.600;2024-02-21T00:58:16;3.78;;;1.45;;
75005;SDS011;63553;51.814;4.600;2024-02-21T01:00:41;1.97;;;1.40;;
75005;SDS011;63553;51.814;4.600;2024-02-21T01:03:07;1.53;;;1.10;;
75005;SDS011;63553;51.814;4.600;2024-02-21T01:05:32;2.30;;;1.27;;
75005;SDS011;63553;51.814;4.600;2024-02-21T01:07:58;1.67;;;1.37;;
75005;SDS011;63553;51.814;4.600;2024-02-21T01:10:23;3.67;;;1.55;;
75005;SDS011;63553;51.814;4.600;2024-02-21T01:12:48;2.40;;;1.07;;
75005;SDS011;63553;51.814;4.600;2024-02-21T01:15:14;2.03;;;1.23;;
75005;SDS011;63553;51.814;4.600;2024-02-21T01:17:39;1.97;;;1.00;;
75005;SDS011;63553;51.814;4.600;2024-02-21T01:20:05;1.50;;;1.30;;
75005;SDS011;63553;51.814;4.600;2024-02-21T01:22:31;2.17;;;1.17;;
75005;SDS011;63553;51.814;4.600;2024-02-21T01:24:57;3.65;;;1.20;;
75005;SDS011;63553;51.814;4.600;2024-02-21T01:27:22;2.13;;;1.30;;
75005;SDS011;63553;51.814;4.600;2024-02-21T01:29:47;1.93;;;1.10;;
75005;SDS011;63553;51.814;4.600;2024-02-21T01:32:14;2.42;;;1.30;;
75005;SDS011;63553;51.814;4.600;2024-02-21T01:34:40;2.00;;;1.25;;
75005;SDS011;63553;51.814;4.600;2024-02-21T01:37:05;2.50;;;1.13;;
75005;SDS011;63553;51.814;4.600;2024-02-21T01:39:32;2.15;;;1.10;;
75005;SDS011;63553;51.814;4.600;2024-02-21T01:41:58;2.65;;;1.30;;
75005;SDS011;63553;51.814;4.600;2024-02-21T01:44:23;2.40;;;1.30;;
75005;SDS011;63553;51.814;4.600;2024-02-21T01:46:49;1.42;;;1.15;;
75005;SDS011;63553;51.814;4.600;2024-02-21T01:49:16;3.15;;;1.48;;
75005;SDS011;63553;51.814;4.600;2024-02-21T01:51:41;1.52;;;1.08;;
75005;SDS011;63553;51.814;4.600;2024-02-21T01:54:07;1.10;;;1.10;;
75005;SDS011;63553;51.814;4.600;2024-02-21T01:56:33;3.33;;;1.42;;
75005;SDS011;63553;51.814;4.600;2024-02-21T01:58:59;3.22;;;2.10;;
75005;SDS011;63553;51.814;4.600;2024-02-21T02:01:24;2.08;;;1.20;;
75005;SDS011;63553;51.814;4.600;2024-02-21T02:03:50;1.17;;;1.08;;
75005;SDS011;63553;51.814;4.600;2024-02-21T02:06:16;3.63;;;1.70;;
75005;SDS011;63553;51.814;4.600;2024-02-21T02:08:41;2.22;;;1.25;;
75005;SDS011;63553;51.814;4.600;2024-02-21T02:11:07;1.67;;;1.15;;
75005;SDS011;63553;51.814;4.600;2024-02-21T02:13:32;2.72;;;1.33;;
75005;SDS011;63553;51.814;4.600;2024-02-21T02:15:58;1.85;;;0.98;;
75005;SDS011;63553;51.814;4.600;2024-02-21T02:18:23;3.70;;;1.20;;
75005;SDS011;63553;51.814;4.600;2024-02-21T02:20:48;2.13;;;1.02;;
75005;SDS011;63553;51.814;4.600;2024-02-21T02:26:09;1.30;;;1.20;;
75005;SDS011;63553;51.814;4.600;2024-02-21T02:28:34;2.87;;;1.27;;
75005;SDS011;63553;51.814;4.600;2024-02-21T02:30:59;3.10;;;1.17;;
75005;SDS011;63553;51.814;4.600;2024-02-21T02:33:24;1.20;;;1.10;;
75005;SDS011;63553;51.814;4.600;2024-02-21T02:35:50;1.67;;;1.10;;
75005;SDS011;63553;51.814;4.600;2024-02-21T02:38:15;1.67;;;1.00;;
75005;SDS011;63553;51.814;4.600;2024-02-21T02:40:41;2.30;;;1.20;;
75005;SDS011;63553;51.814;4.600;2024-02-21T02:43:06;2.38;;;1.00;;
75005;SDS011;63553;51.814;4.600;2024-02-21T02:45:31;1.10;;;1.00;;
75005;SDS011;63553;51.814;4.600;2024-02-21T02:47:57;1.00;;;0.90;;
75005;SDS011;63553;51.814;4.600;2024-02-21T02:50:23;1.73;;;1.17;;
75005;SDS011;63553;51.814;4.600;2024-02-21T02:52:49;1.40;;;1.20;;
75005;SDS011;63553;51.814;4.600;2024-02-21T02:55:14;1.75;;;1.30;;
75005;SDS011;63553;51.814;4.600;2024-02-21T02:57:40;1.60;;;1.00;;
75005;SDS011;63553;51.814;4.600;2024-02-21T03:00:08;2.05;;;1.30;;
75005;SDS011;63553;51.814;4.600;2024-02-21T03:02:35;3.00;;;1.10;;
75005;SDS011;63553;51.814;4.600;2024-02-21T03:05:03;2.20;;;0.95;;
75005;SDS011;63553;51.814;4.600;2024-02-21T03:07:37;2.50;;;1.10;;
75005;SDS011;63553;51.814;4.600;2024-02-21T03:10:03;1.00;;;0.90;;
75005;SDS011;63553;51.814;4.600;2024-02-21T03:12:28;2.42;;;1.30;;
75005;SDS011;63553;51.814;4.600;2024-02-21T03:14:54;1.88;;;1.15;;
75005;SDS011;63553;51.814;4.600;2024-02-21T03:17:19;2.13;;;1.10;;
75005;SDS011;63553;51.814;4.600;2024-02-21T03:19:45;1.30;;;1.20;;
75005;SDS011;63553;51.814;4.600;2024-02-21T03:22:10;3.07;;;1.00;;
75005;SDS011;63553;51.814;4.600;2024-02-21T03:24:35;1.13;;;1.00;;
75005;SDS011;63553;51.814;4.600;2024-02-21T03:27:00;2.10;;;1.20;;
75005;SDS011;63553;51.814;4.600;2024-02-21T03:29:26;0.88;;;0.88;;
75005;SDS011;63553;51.814;4.600;2024-02-21T03:31:51;1.67;;;1.00;;
75005;SDS011;63553;51.814;4.600;2024-02-21T03:34:16;1.00;;;1.00;;
75005;SDS011;63553;51.814;4.600;2024-02-21T03:36:42;2.13;;;1.07;;
75005;SDS011;63553;51.814;4.600;2024-02-21T03:39:07;2.95;;;1.10;;
75005;SDS011;63553;51.814;4.600;2024-02-21T03:41:34;1.55;;;0.77;;
75005;SDS011;63553;51.814;4.600;2024-02-21T03:43:59;0.90;;;0.90;;
75005;SDS011;63553;51.814;4.600;2024-02-21T03:46:25;1.90;;;1.10;;
75005;SDS011;63553;51.814;4.600;2024-02-21T03:48:50;1.90;;;1.00;;
75005;SDS011;63553;51.814;4.600;2024-02-21T03:51:15;1.27;;;1.17;;
75005;SDS011;63553;51.814;4.600;2024-02-21T03:53:41;0.98;;;0.90;;
75005;SDS011;63553;51.814;4.600;2024-02-21T03:56:06;1.23;;;1.00;;
75005;SDS011;63553;51.814;4.600;2024-02-21T03:58:32;2.15;;;1.00;;
75005;SDS011;63553;51.814;4.600;2024-02-21T04:00:59;1.02;;;1.00;;
75005;SDS011;63553;51.814;4.600;2024-02-21T04:03:26;2.65;;;0.98;;
75005;SDS011;63553;51.814;4.600;2024-02-21T04:05:51;1.02;;;0.93;;
75005;SDS011;63553;51.814;4.600;2024-02-21T04:08:17;1.42;;;1.10;;
75005;SDS011;63553;51.814;4.600;2024-02-21T04:10:42;1.73;;;1.07;;
75005;SDS011;63553;51.814;4.600;2024-02-21T04:13:08;1.17;;;1.08;;
75005;SDS011;63553;51.814;4.600;2024-02-21T04:15:34;1.10;;;1.10;;
75005;SDS011;63553;51.814;4.600;2024-02-21T04:18:00;1.95;;;1.35;;
75005;SDS011;63553;51.814;4.600;2024-02-21T04:20:25;2.33;;;1.10;;
75005;SDS011;63553;51.814;4.600;2024-02-21T04:22:50;1.15;;;1.13;;
75005;SDS011;63553;51.814;4.600;2024-02-21T04:25:16;1.60;;;1.00;;
75005;SDS011;63553;51.814;4.600;2024-02-21T04:27:41;1.60;;;1.43;;
75005;SDS011;63553;51.814;4.600;2024-02-21T04:30:07;1.67;;;1.20;;
75005;SDS011;63553;51.814;4.600;2024-02-21T04:32:32;1.05;;;1.05;;
75005;SDS011;63553;51.814;4.600;2024-02-21T04:34:58;1.83;;;1.40;;
75005;SDS011;63553;51.814;4.600;2024-02-21T04:37:23;1.40;;;1.00;;
75005;SDS011;63553;51.814;4.600;2024-02-21T04:39:49;1.98;;;1.15;;
75005;SDS011;63553;51.814;4.600;2024-02-21T04:42:15;2.28;;;1.15;;
75005;SDS011;63553;51.814;4.600;2024-02-21T04:44:40;1.55;;;1.33;;
75005;SDS011;63553;51.814;4.600;2024-02-21T04:47:06;1.92;;;1.38;;
75005;SDS011;63553;51.814;4.600;2024-02-21T04:49:32;1.40;;;1.30;;
75005;SDS011;63553;51.814;4.600;2024-02-21T04:51:57;1.20;;;1.10;;
75005;SDS011;63553;51.814;4.600;2024-02-21T04:54:22;1.00;;;1.00;;
75005;SDS011;63553;51.814;4.600;2024-02-21T04:56:48;1.92;;;1.30;;
75005;SDS011;63553;51.814;4.600;2024-02-21T04:59:13;1.60;;;1.30;;
75005;SDS011;63553;51.814;4.600;2024-02-21T05:01:38;2.65;;;1.10;;
75005;SDS011;63553;51.814;4.600;2024-02-21T05:04:04;1.10;;;1.10;;
75005;SDS011;63553;51.814;4.600;2024-02-21T05:06:29;1.57;;;1.47;;
75005;SDS011;63553;51.814;4.600;2024-02-21T05:08:54;6.20;;;1.98;;
75005;SDS011;63553;51.814;4.600;2024-02-21T05:11:20;3.25;;;1.60;;
75005;SDS011;63553;51.814;4.600;2024-02-21T05:13:46;3.83;;;1.77;;
75005;SDS011;63553;51.814;4.600;2024-02-21T05:16:12;3.33;;;1.60;;
75005;SDS011;63553;51.814;4.600;2024-02-21T05:18:37;2.33;;;2.13;;
75005;SDS011;63553;51.814;4.600;2024-02-21T05:21:03;2.17;;;1.53;;
75005;SDS011;63553;51.814;4.600;2024-02-21T05:23:28;5.18;;;2.78;;
75005;SDS011;63553;51.814;4.600;2024-02-21T05:25:53;3.00;;;1.63;;
75005;SDS011;63553;51.814;4.600;2024-02-21T05:28:19;1.37;;;1.27;;
75005;SDS011;63553;51.814;4.600;2024-02-21T05:30:44;1.38;;;1.27;;
75005;SDS011;63553;51.814;4.600;2024-02-21T05:33:09;1.63;;;1.53;;
75005;SDS011;63553;51.814;4.600;2024-02-21T05:35:35;6.80;;;2.13;;
75005;SDS011;63553;51.814;4.600;2024-02-21T05:38:01;1.50;;;1.40;;
75005;SDS011;63553;51.814;4.600;2024-02-21T05:40:29;1.30;;;1.20;;
75005;SDS011;63553;51.814;4.600;2024-02-21T05:42:54;1.02;;;1.02;;
75005;SDS011;63553;51.814;4.600;2024-02-21T05:45:20;1.58;;;1.30;;
75005;SDS011;63553;51.814;4.600;2024-02-21T05:47:45;2.83;;;1.48;;
75005;SDS011;63553;51.814;4.600;2024-02-21T05:50:10;1.75;;;1.50;;
75005;SDS011;63553;51.814;4.600;2024-02-21T05:52:36;2.25;;;1.20;;
75005;SDS011;63553;51.814;4.600;2024-02-21T05:55:01;1.53;;;1.10;;
75005;SDS011;63553;51.814;4.600;2024-02-21T05:57:26;2.53;;;1.20;;
75005;SDS011;63553;51.814;4.600;2024-02-21T05:59:52;3.23;;;1.73;;
75005;SDS011;63553;51.814;4.600;2024-02-21T06:02:17;1.93;;;1.20;;
75005;SDS011;63553;51.814;4.600;2024-02-21T06:04:42;3.10;;;1.40;;
75005;SDS011;63553;51.814;4.600;2024-02-21T06:07:09;1.48;;;1.27;;
75005;SDS011;63553;51.814;4.600;2024-02-21T06:09:34;2.70;;;1.40;;
75005;SDS011;63553;51.814;4.600;2024-02-21T06:11:59;2.17;;;1.47;;
75005;SDS011;63553;51.814;4.600;2024-02-21T06:14:25;1.33;;;1.23;;
75005;SDS011;63553;51.814;4.600;2024-02-21T06:16:50;1.40;;;1.30;;
75005;SDS011;63553;51.814;4.600;2024-02-21T06:19:15;1.33;;;1.23;;
75005;SDS011;63553;51.814;4.600;2024-02-21T06:21:41;2.03;;;1.52;;
75005;SDS011;63553;51.814;4.600;2024-02-21T06:24:06;2.10;;;1.20;;
75005;SDS011;63553;51.814;4.600;2024-02-21T06:26:31;1.52;;;1.30;;
75005;SDS011;63553;51.814;4.600;2024-02-21T06:28:57;2.90;;;1.53;;
75005;SDS011;63553;51.814;4.600;2024-02-21T06:31:24;0.98;;;0.98;;
75005;SDS011;63553;51.814;4.600;2024-02-21T06:33:49;2.20;;;1.30;;
75005;SDS011;63553;51.814;4.600;2024-02-21T06:36:15;2.43;;;1.20;;
75005;SDS011;63553;51.814;4.600;2024-02-21T06:38:40;1.20;;;1.10;;
75005;SDS011;63553;51.814;4.600;2024-02-21T06:41:05;1.45;;;1.35;;
75005;SDS011;63553;51.814;4.600;2024-02-21T06:43:31;1.87;;;1.50;;
75005;SDS011;63553;51.814;4.600;2024-02-21T06:45:56;1.83;;;1.30;;
75005;SDS011;63553;51.814;4.600;2024-02-21T06:48:21;2.60;;;1.50;;
75005;SDS011;63553;51.814;4.600;2024-02-21T06:50:47;1.42;;;1.27;;
75005;SDS011;63553;51.814;4.600;2024-02-21T06:53:12;10.57;;;4.53;;
75005;SDS011;63553;51.814;4.600;2024-02-21T06:55:38;11.43;;;4.37;;
75005;SDS011;63553;51.814;4.600;2024-02-21T06:58:03;12.90;;;5.65;;
75005;SDS011;63553;51.814;4.600;2024-02-21T07:00:29;14.67;;;6.50;;
75005;SDS011;63553;51.814;4.600;2024-02-21T07:02:54;107.03;;;13.18;;
75005;SDS011;63553;51.814;4.600;2024-02-21T07:05:20;219.18;;;21.38;;
75005;SDS011;63553;51.814;4.600;2024-02-21T07:07:45;310.70;;;34.17;;
75005;SDS011;63553;51.814;4.600;2024-02-21T07:10:11;36.13;;;11.97;;
75005;SDS011;63553;51.814;4.600;2024-02-21T07:12:36;20.98;;;9.05;;
75005;SDS011;63553;51.814;4.600;2024-02-21T07:15:03;16.10;;;6.68;;
75005;SDS011;63553;51.814;4.600;2024-02-21T07:17:29;13.88;;;5.30;;
75005;SDS011;63553;51.814;4.600;2024-02-21T07:19:55;9.10;;;4.75;;
75005;SDS011;63553;51.814;4.600;2024-02-21T07:22:22;9.93;;;4.32;;
75005;SDS011;63553;51.814;4.600;2024-02-21T07:24:47;12.20;;;5.35;;
75005;SDS011;63553;51.814;4.600;2024-02-21T07:27:14;7.97;;;4.87;;
75005;SDS011;63553;51.814;4.600;2024-02-21T07:29:40;9.93;;;4.72;;
75005;SDS011;63553;51.814;4.600;2024-02-21T07:32:05;12.13;;;6.00;;
75005;SDS011;63553;51.814;4.600;2024-02-21T07:34:31;10.23;;;4.97;;
75005;SDS011;63553;51.814;4.600;2024-02-21T07:36:56;12.80;;;5.70;;
75005;SDS011;63553;51.814;4.600;2024-02-21T07:39:22;8.10;;;4.70;;
75005;SDS011;63553;51.814;4.600;2024-02-21T07:41:47;11.10;;;5.30;;
75005;SDS011;63553;51.814;4.600;2024-02-21T07:44:14;11.50;;;5.20;;
75005;SDS011;63553;51.814;4.600;2024-02-21T07:46:39;11.02;;;5.65;;
75005;SDS011;63553;51.814;4.600;2024-02-21T07:49:05;9.37;;;5.30;;
75005;SDS011;63553;51.814;4.600;2024-02-21T07:51:30;10.70;;;5.53;;
75005;SDS011;63553;51.814;4.600;2024-02-21T07:53:55;12.18;;;6.07;;
75005;SDS011;63553;51.814;4.600;2024-02-21T07:56:21;8.82;;;5.13;;
75005;SDS011;63553;51.814;4.600;2024-02-21T07:58:46;14.25;;;6.80;;
75005;SDS011;63553;51.814;4.600;2024-02-21T08:01:12;8.40;;;4.50;;
75005;SDS011;63553;51.814;4.600;2024-02-21T08:03:44;7.75;;;4.97;;
75005;SDS011;63553;51.814;4.600;2024-02-21T08:06:11;8.60;;;5.35;;
75005;SDS011;63553;51.814;4.600;2024-02-21T08:08:37;11.43;;;5.95;;
75005;SDS011;63553;51.814;4.600;2024-02-21T08:11:02;15.53;;;6.13;;
75005;SDS011;63553;51.814;4.600;2024-02-21T08:13:28;7.97;;;4.97;;
75005;SDS011;63553;51.814;4.600;2024-02-21T08:15:53;10.55;;;5.50;;
75005;SDS011;63553;51.814;4.600;2024-02-21T08:18:19;17.60;;;5.90;;
75005;SDS011;63553;51.814;4.600;2024-02-21T08:20:44;8.20;;;5.37;;
75005;SDS011;63553;51.814;4.600;2024-02-21T08:23:09;10.37;;;5.90;;
75005;SDS011;63553;51.814;4.600;2024-02-21T08:25:35;11.80;;;5.60;;
75005;SDS011;63553;51.814;4.600;2024-02-21T08:28:00;9.93;;;4.97;;
75005;SDS011;63553;51.814;4.600;2024-02-21T08:30:25;9.20;;;5.25;;
75005;SDS011;63553;51.814;4.600;2024-02-21T08:32:51;12.30;;;5.05;;
75005;SDS011;63553;51.814;4.600;2024-02-21T08:35:16;11.52;;;5.22;;
75005;SDS011;63553;51.814;4.600;2024-02-21T08:37:43;12.43;;;6.38;;
75005;SDS011;63553;51.814;4.600;2024-02-21T08:40:09;10.52;;;5.72;;
75005;SDS011;63553;51.814;4.600;2024-02-21T08:42:35;10.75;;;5.40;;
75005;SDS011;63553;51.814;4.600;2024-02-21T08:45:02;9.32;;;5.13;;
75005;SDS011;63553;51.814;4.600;2024-02-21T08:47:28;11.15;;;5.43;;
75005;SDS011;63553;51.814;4.600;2024-02-21T08:49:53;11.73;;;5.10;;
75005;SDS011;63553;51.814;4.600;2024-02-21T08:52:18;7.70;;;4.97;;
75005;SDS011;63553;51.814;4.600;2024-02-21T08:54:44;9.57;;;5.03;;
75005;SDS011;63553;51.814;4.600;2024-02-21T08:57:09;7.47;;;4.87;;
75005;SDS011;63553;51.814;4.600;2024-02-21T08:59:34;7.33;;;4.63;;
75005;SDS011;63553;51.814;4.600;2024-02-21T09:02:00;8.50;;;4.60;;
75005;SDS011;63553;51.814;4.600;2024-02-21T09:04:25;9.20;;;5.30;;
75005;SDS011;63553;51.814;4.600;2024-02-21T09:06:50;8.80;;;4.10;;
75005;SDS011;63553;51.814;4.600;2024-02-21T09:09:17;6.85;;;4.18;;
75005;SDS011;63553;51.814;4.600;2024-02-21T09:11:42;11.33;;;4.57;;
75005;SDS011;63553;51.814;4.600;2024-02-21T09:14:08;10.38;;;4.75;;
75005;SDS011;63553;51.814;4.600;2024-02-21T09:16:33;7.85;;;4.57;;
75005;SDS011;63553;51.814;4.600;2024-02-21T09:18:58;7.78;;;4.70;;
75005;SDS011;63553;51.814;4.600;2024-02-21T09:21:25;9.45;;;5.15;;
75005;SDS011;63553;51.814;4.600;2024-02-21T09:23:50;8.93;;;4.23;;
75005;SDS011;63553;51.814;4.600;2024-02-21T09:26:16;6.43;;;4.43;;
75005;SDS011;63553;51.814;4.600;2024-02-21T09:28:42;8.77;;;4.65;;
75005;SDS011;63553;51.814;4.600;2024-02-21T09:31:08;8.13;;;4.82;;
75005;SDS011;63553;51.814;4.600;2024-02-21T09:33:33;9.47;;;4.33;;
75005;SDS011;63553;51.814;4.600;2024-02-21T09:35:58;10.30;;;4.30;;
75005;SDS011;63553;51.814;4.600;2024-02-21T09:38:24;11.85;;;4.95;;
75005;SDS011;63553;51.814;4.600;2024-02-21T09:40:55;7.22;;;4.18;;
75005;SDS011;63553;51.814;4.600;2024-02-21T09:43:25;7.57;;;4.32;;
75005;SDS011;63553;51.814;4.600;2024-02-21T09:45:51;9.27;;;5.20;;
75005;SDS011;63553;51.814;4.600;2024-02-21T09:48:34;13.23;;;4.90;;
75005;SDS011;63553;51.814;4.600;2024-02-21T09:51:07;8.88;;;4.88;;
75005;SDS011;63553;51.814;4.600;2024-02-21T09:53:37;9.50;;;4.50;;
75005;SDS011;63553;51.814;4.600;2024-02-21T09:56:03;7.18;;;4.95;;
75005;SDS011;63553;51.814;4.600;2024-02-21T09:58:30;7.00;;;4.55;;
75005;SDS011;63553;51.814;4.600;2024-02-21T10:00:55;8.77;;;4.90;;
75005;SDS011;63553;51.814;4.600;2024-02-21T10:03:23;7.45;;;4.82;;
75005;SDS011;63553;51.814;4.600;2024-02-21T10:05:48;6.10;;;4.13;;
75005;SDS011;63553;51.814;4.600;2024-02-21T10:08:17;13.13;;;6.07;;
75005;SDS011;63553;51.814;4.600;2024-02-21T10:10:43;7.40;;;5.60;;
75005;SDS011;63553;51.814;4.600;2024-02-21T10:13:09;11.10;;;6.15;;
75005;SDS011;63553;51.814;4.600;2024-02-21T10:15:35;8.90;;;5.70;;
75005;SDS011;63553;51.814;4.600;2024-02-21T10:18:01;9.47;;;6.87;;
75005;SDS011;63553;51.814;4.600;2024-02-21T10:20:28;11.57;;;6.40;;
75005;SDS011;63553;51.814;4.600;2024-02-21T10:23:03;7.25;;;6.15;;
75005;SDS011;63553;51.814;4.600;2024-02-21T10:25:35;7.20;;;4.72;;
75005;SDS011;63553;51.814;4.600;2024-02-21T10:28:06;8.20;;;5.78;;
75005;SDS011;63553;51.814;4.600;2024-02-21T10:30:32;7.30;;;4.35;;
75005;SDS011;63553;51.814;4.600;2024-02-21T10:32:57;7.10;;;5.82;;
75005;SDS011;63553;51.814;4.600;2024-02-21T10:35:29;7.18;;;5.47;;
75005;SDS011;63553;51.814;4.600;2024-02-21T10:37:57;8.63;;;5.45;;
75005;SDS011;63553;51.814;4.600;2024-02-21T10:40:27;5.85;;;4.95;;
75005;SDS011;63553;51.814;4.600;2024-02-21T10:42:59;7.30;;;4.72;;
75005;SDS011;63553;51.814;4.600;2024-02-21T10:45:32;7.88;;;5.70;;
75005;SDS011;63553;51.814;4.600;2024-02-21T10:48:11;7.32;;;5.55;;
75005;SDS011;63553;51.814;4.600;2024-02-21T10:56:15;11.52;;;7.03;;
75005;SDS011;63553;51.814;4.600;2024-02-21T10:58:46;10.23;;;7.15;;
75005;SDS011;63553;51.814;4.600;2024-02-21T11:01:13;8.30;;;6.20;;
75005;SDS011;63553;51.814;4.600;2024-02-21T11:03:41;9.15;;;5.57;;
75005;SDS011;63553;51.814;4.600;2024-02-21T11:06:09;6.78;;;5.47;;
75005;SDS011;63553;51.814;4.600;2024-02-21T11:08:36;7.55;;;5.93;;
75005;SDS011;63553;51.814;4.600;2024-02-21T11:11:02;8.52;;;5.63;;
75005;SDS011;63553;51.814;4.600;2024-02-21T11:13:30;8.63;;;5.40;;
75005;SDS011;63553;51.814;4.600;2024-02-21T11:16:10;7.80;;;5.05;;
75005;SDS011;63553;51.814;4.600;2024-02-21T11:18:36;8.95;;;5.75;;
75005;SDS011;63553;51.814;4.600;2024-02-21T11:21:02;7.85;;;5.93;;
75005;SDS011;63553;51.814;4.600;2024-02-21T11:23:31;11.90;;;5.75;;
75005;SDS011;63553;51.814;4.600;2024-02-21T11:28:34;8.15;;;5.18;;
75005;SDS011;63553;51.814;4.600;2024-02-21T11:31:07;8.63;;;5.18;;
75005;SDS011;63553;51.814;4.600;2024-02-21T11:33:41;11.48;;;5.30;;
75005;SDS011;63553;51.814;4.600;2024-02-21T11:36:07;8.18;;;4.32;;
75005;SDS011;63553;51.814;4.600;2024-02-21T11:38:33;8.45;;;4.25;;
75005;SDS011;63553;51.814;4.600;2024-02-21T11:40:59;6.93;;;4.43;;
75005;SDS011;63553;51.814;4.600;2024-02-21T11:43:24;7.93;;;4.53;;
75005;SDS011;63553;51.814;4.600;2024-02-21T11:45:50;6.93;;;4.07;;
75005;SDS011;63553;51.814;4.600;2024-02-21T11:48:23;7.28;;;4.40;;
75005;SDS011;63553;51.814;4.600;2024-02-21T11:50:53;7.40;;;4.43;;
75005;SDS011;63553;51.814;4.600;2024-02-21T11:53:20;7.10;;;4.53;;
75005;SDS011;63553;51.814;4.600;2024-02-21T11:55:46;7.95;;;3.83;;
75005;SDS011;63553;51.814;4.600;2024-02-21T11:58:11;3.95;;;3.45;;
75005;SDS011;63553;51.814;4.600;2024-02-21T12:00:37;6.45;;;3.83;;
75005;SDS011;63553;51.814;4.600;2024-02-21T12:03:02;7.30;;;3.83;;
75005;SDS011;63553;51.814;4.600;2024-02-21T12:05:29;7.50;;;3.50;;
75005;SDS011;63553;51.814;4.600;2024-02-21T12:07:55;9.32;;;4.10;;
75005;SDS011;63553;51.814;4.600;2024-02-21T12:10:23;5.05;;;4.03;;
75005;SDS011;63553;51.814;4.600;2024-02-21T12:12:48;5.03;;;3.60;;
75005;SDS011;63553;51.814;4.600;2024-02-21T12:15:15;6.10;;;3.78;;
75005;SDS011;63553;51.814;4.600;2024-02-21T12:17:43;6.20;;;3.30;;
75005;SDS011;63553;51.814;4.600;2024-02-21T12:20:09;6.70;;;3.47;;
75005;SDS011;63553;51.814;4.600;2024-02-21T12:22:39;3.63;;;3.30;;
75005;SDS011;63553;51.814;4.600;2024-02-21T12:25:24;5.80;;;3.30;;
75005;SDS011;63553;51.814;4.600;2024-02-21T12:27:53;6.53;;;3.58;;
75005;SDS011;63553;51.814;4.600;2024-02-21T12:30:19;6.05;;;3.72;;
75005;SDS011;63553;51.814;4.600;2024-02-21T12:32:44;5.90;;;3.42;;
75005;SDS011;63553;51.814;4.600;2024-02-21T12:35:10;6.05;;;3.70;;
75005;SDS011;63553;51.814;4.600;2024-02-21T12:37:36;5.93;;;3.72;;
75005;SDS011;63553;51.814;4.600;2024-02-21T12:40:03;5.65;;;3.33;;
75005;SDS011;63553;51.814;4.600;2024-02-21T12:42:31;8.15;;;3.50;;
75005;SDS011;63553;51.814;4.600;2024-02-21T12:44:58;8.55;;;3.50;;
75005;SDS011;63553;51.814;4.600;2024-02-21T12:47:23;7.57;;;3.03;;
75005;SDS011;63553;51.814;4.600;2024-02-21T12:49:49;4.78;;;3.60;;
75005;SDS011;63553;51.814;4.600;2024-02-21T12:52:15;6.43;;;3.10;;
75005;SDS011;63553;51.814;4.600;2024-02-21T12:54:41;5.20;;;2.85;;
75005;SDS011;63553;51.814;4.600;2024-02-21T12:57:07;4.78;;;3.10;;
75005;SDS011;63553;51.814;4.600;2024-02-21T12:59:33;4.18;;;2.88;;
75005;SDS011;63553;51.814;4.600;2024-02-21T13:01:58;3.55;;;2.70;;
75005;SDS011;63553;51.814;4.600;2024-02-21T13:04:24;5.13;;;2.72;;
75005;SDS011;63553;51.814;4.600;2024-02-21T13:06:49;3.03;;;2.57;;
75005;SDS011;63553;51.814;4.600;2024-02-21T13:09:15;7.23;;;2.90;;
75005;SDS011;63553;51.814;4.600;2024-02-21T13:11:40;5.50;;;3.15;;
75005;SDS011;63553;51.814;4.600;2024-02-21T13:14:06;3.47;;;2.50;;
75005;SDS011;63553;51.814;4.600;2024-02-21T13:16:32;4.80;;;2.65;;
75005;SDS011;63553;51.814;4.600;2024-02-21T13:19:04;5.28;;;2.85;;
75005;SDS011;63553;51.814;4.600;2024-02-21T13:21:29;4.10;;;2.83;;
75005;SDS011;63553;51.814;4.600;2024-02-21T13:23:54;5.37;;;2.90;;
75005;SDS011;63553;51.814;4.600;2024-02-21T13:26:21;4.70;;;2.53;;
75005;SDS011;63553;51.814;4.600;2024-02-21T13:28:46;5.70;;;2.70;;
75005;SDS011;63553;51.814;4.600;2024-02-21T13:31:13;4.00;;;2.30;;
75005;SDS011;63553;51.814;4.600;2024-02-21T13:33:38;6.85;;;3.03;;
75005;SDS011;63553;51.814;4.600;2024-02-21T13:36:04;5.30;;;3.17;;
75005;SDS011;63553;51.814;4.600;2024-02-21T13:38:29;5.30;;;2.72;;
75005;SDS011;63553;51.814;4.600;2024-02-21T13:40:55;6.40;;;2.97;;
75005;SDS011;63553;51.814;4.600;2024-02-21T13:43:20;5.93;;;3.03;;
75005;SDS011;63553;51.814;4.600;2024-02-21T13:45:55;4.57;;;2.58;;
75005;SDS011;63553;51.814;4.600;2024-02-21T13:48:23;3.75;;;2.78;;
75005;SDS011;63553;51.814;4.600;2024-02-21T13:50:49;4.38;;;2.70;;
75005;SDS011;63553;51.814;4.600;2024-02-21T13:53:14;4.10;;;3.27;;
75005;SDS011;63553;51.814;4.600;2024-02-21T13:55:40;4.10;;;2.87;;
75005;SDS011;63553;51.814;4.600;2024-02-21T13:58:06;6.60;;;3.40;;
75005;SDS011;63553;51.814;4.600;2024-02-21T14:00:31;4.73;;;2.67;;
75005;SDS011;63553;51.814;4.600;2024-02-21T14:02:59;6.75;;;3.20;;
75005;SDS011;63553;51.814;4.600;2024-02-21T14:05:26;3.58;;;3.28;;
75005;SDS011;63553;51.814;4.600;2024-02-21T14:07:51;3.20;;;2.90;;
75005;SDS011;63553;51.814;4.600;2024-02-21T14:10:19;5.43;;;3.25;;
75005;SDS011;63553;51.814;4.600;2024-02-21T14:12:45;4.97;;;2.95;;
75005;SDS011;63553;51.814;4.600;2024-02-21T14:15:10;4.87;;;3.20;;
75005;SDS011;63553;51.814;4.600;2024-02-21T14:17:35;4.03;;;2.97;;
75005;SDS011;63553;51.814;4.600;2024-02-21T14:20:01;8.00;;;3.20;;
75005;SDS011;63553;51.814;4.600;2024-02-21T14:22:29;5.57;;;4.28;;
75005;SDS011;63553;51.814;4.600;2024-02-21T14:24:54;6.20;;;3.23;;
75005;SDS011;63553;51.814;4.600;2024-02-21T14:27:21;6.10;;;3.40;;
75005;SDS011;63553;51.814;4.600;2024-02-21T14:29:46;5.32;;;3.40;;
75005;SDS011;63553;51.814;4.600;2024-02-21T14:32:12;8.33;;;3.83;;
75005;SDS011;63553;51.814;4.600;2024-02-21T14:34:38;5.50;;;3.95;;
75005;SDS011;63553;51.814;4.600;2024-02-21T14:37:03;6.73;;;3.90;;
75005;SDS011;63553;51.814;4.600;2024-02-21T14:39:29;7.03;;;4.03;;
75005;SDS011;63553;51.814;4.600;2024-02-21T14:41:54;7.32;;;4.22;;
75005;SDS011;63553;51.814;4.600;2024-02-21T14:44:20;6.78;;;3.83;;
75005;SDS011;63553;51.814;4.600;2024-02-21T14:46:45;6.87;;;4.13;;
75005;SDS011;63553;51.814;4.600;2024-02-21T14:49:10;7.20;;;3.80;;